sensor_id;sensor_type;location;lat;lon;timestamp;P1;durP1;ratioP1;P2;durP2;ratioP2
45806;SDS011;31507;51.494;7.518;2023-05-25T00:00:07;67.78;;;30.65;;
45806;SDS011;31507;51.494;7.518;2023-05-25T00:02:38;78.82;;;30.15;;
45806;SDS011;31507;51.494;7.518;2023-05-25T00:05:04;65.32;;;29.48;;
45806;SDS011;31507;51.494;7.518;2023-05-25T00:07:32;65.07;;;29.00;;
45806;SDS011;31507;51.494;7.518;2023-05-25T00:09:59;57.22;;;27.90;;
45806;SDS011;31507;51.494;7.518;2023-05-25T00:12:24;65.57;;;27.35;;
45806;SDS011;31507;51.494;7.518;2023-05-25T00:14:50;61.20;;;25.52;;
45806;SDS011;31507;51.494;7.518;2023-05-25T00:17:16;60.20;;;25.48;;
45806;SDS011;31507;51.494;7.518;2023-05-25T00:19:42;55.90;;;25.30;;
45806;SDS011;31507;51.494;7.518;2023-05-25T00:22:09;55.17;;;23.80;;
45806;SDS011;31507;51.494;7.518;2023-05-25T00:24:38;50.63;;;23.80;;
45806;SDS011;31507;51.494;7.518;2023-05-25T00:27:04;50.95;;;21.40;;
45806;SDS011;31507;51.494;7.518;2023-05-25T00:29:31;51.20;;;21.15;;
45806;SDS011;31507;51.494;7.518;2023-05-25T00:31:57;38.97;;;18.48;;
45806;SDS011;31507;51.494;7.518;2023-05-25T00:34:22;40.05;;;18.73;;
45806;SDS011;31507;51.494;7.518;2023-05-25T00:36:48;39.20;;;17.08;;
45806;SDS011;31507;51.494;7.518;2023-05-25T00:39:17;42.75;;;17.67;;
45806;SDS011;31507;51.494;7.518;2023-05-25T00:41:43;50.80;;;16.65;;
45806;SDS011;31507;51.494;7.518;2023-05-25T00:44:10;34.33;;;15.98;;
45806;SDS011;31507;51.494;7.518;2023-05-25T00:46:40;38.63;;;16.02;;
45806;SDS011;31507;51.494;7.518;2023-05-25T00:49:14;39.78;;;16.90;;
45806;SDS011;31507;51.494;7.518;2023-05-25T00:51:40;49.38;;;17.77;;
45806;SDS011;31507;51.494;7.518;2023-05-25T00:54:06;42.65;;;18.20;;
45806;SDS011;31507;51.494;7.518;2023-05-25T00:56:34;45.63;;;19.50;;
45806;SDS011;31507;51.494;7.518;2023-05-25T00:59:05;46.47;;;18.92;;
45806;SDS011;31507;51.494;7.518;2023-05-25T01:01:34;43.20;;;18.80;;
45806;SDS011;31507;51.494;7.518;2023-05-25T01:04:05;51.47;;;21.25;;
45806;SDS011;31507;51.494;7.518;2023-05-25T01:06:33;54.13;;;22.40;;
45806;SDS011;31507;51.494;7.518;2023-05-25T01:09:03;48.35;;;22.77;;
45806;SDS011;31507;51.494;7.518;2023-05-25T01:11:36;53.28;;;23.75;;
45806;SDS011;31507;51.494;7.518;2023-05-25T01:14:04;53.15;;;23.27;;
45806;SDS011;31507;51.494;7.518;2023-05-25T01:16:30;41.78;;;21.75;;
45806;SDS011;31507;51.494;7.518;2023-05-25T01:18:56;54.03;;;23.88;;
45806;SDS011;31507;51.494;7.518;2023-05-25T01:24:21;67.57;;;24.85;;
45806;SDS011;31507;51.494;7.518;2023-05-25T01:27:00;57.10;;;23.25;;
45806;SDS011;31507;51.494;7.518;2023-05-25T01:29:33;51.72;;;24.30;;
45806;SDS011;31507;51.494;7.518;2023-05-25T01:32:01;58.55;;;24.35;;
45806;SDS011;31507;51.494;7.518;2023-05-25T01:34:28;72.75;;;27.48;;
45806;SDS011;31507;51.494;7.518;2023-05-25T01:36:55;66.25;;;28.02;;
45806;SDS011;31507;51.494;7.518;2023-05-25T01:39:21;62.75;;;27.60;;
45806;SDS011;31507;51.494;7.518;2023-05-25T01:41:47;71.13;;;28.40;;
45806;SDS011;31507;51.494;7.518;2023-05-25T01:44:13;70.55;;;28.88;;
45806;SDS011;31507;51.494;7.518;2023-05-25T01:46:39;73.80;;;28.98;;
45806;SDS011;31507;51.494;7.518;2023-05-25T01:52:22;68.82;;;27.65;;
45806;SDS011;31507;51.494;7.518;2023-05-25T01:54:54;72.43;;;28.38;;
45806;SDS011;31507;51.494;7.518;2023-05-25T01:57:26;66.28;;;28.35;;
45806;SDS011;31507;51.494;7.518;2023-05-25T01:59:54;66.20;;;30.27;;
45806;SDS011;31507;51.494;7.518;2023-05-25T02:02:24;75.30;;;30.40;;
45806;SDS011;31507;51.494;7.518;2023-05-25T02:04:52;69.40;;;29.70;;
45806;SDS011;31507;51.494;7.518;2023-05-25T02:07:18;65.38;;;31.92;;
45806;SDS011;31507;51.494;7.518;2023-05-25T02:09:45;68.57;;;30.08;;
45806;SDS011;31507;51.494;7.518;2023-05-25T02:12:10;75.70;;;32.55;;
45806;SDS011;31507;51.494;7.518;2023-05-25T02:14:36;69.85;;;29.80;;
45806;SDS011;31507;51.494;7.518;2023-05-25T02:17:01;66.28;;;29.83;;
45806;SDS011;31507;51.494;7.518;2023-05-25T02:19:28;73.10;;;29.95;;
45806;SDS011;31507;51.494;7.518;2023-05-25T02:21:54;70.78;;;30.50;;
45806;SDS011;31507;51.494;7.518;2023-05-25T02:24:20;77.57;;;31.05;;
45806;SDS011;31507;51.494;7.518;2023-05-25T02:26:48;81.68;;;31.30;;
45806;SDS011;31507;51.494;7.518;2023-05-25T02:29:14;81.40;;;34.75;;
45806;SDS011;31507;51.494;7.518;2023-05-25T02:31:40;88.32;;;33.80;;
45806;SDS011;31507;51.494;7.518;2023-05-25T02:34:06;76.15;;;32.08;;
45806;SDS011;31507;51.494;7.518;2023-05-25T02:36:32;86.50;;;33.13;;
45806;SDS011;31507;51.494;7.518;2023-05-25T02:39:01;92.75;;;33.67;;
45806;SDS011;31507;51.494;7.518;2023-05-25T02:41:27;81.10;;;33.70;;
45806;SDS011;31507;51.494;7.518;2023-05-25T02:43:52;87.47;;;34.45;;
45806;SDS011;31507;51.494;7.518;2023-05-25T02:46:19;94.25;;;35.85;;
45806;SDS011;31507;51.494;7.518;2023-05-25T02:48:45;108.75;;;35.30;;
45806;SDS011;31507;51.494;7.518;2023-05-25T02:51:11;90.93;;;34.70;;
45806;SDS011;31507;51.494;7.518;2023-05-25T02:53:37;87.07;;;35.40;;
45806;SDS011;31507;51.494;7.518;2023-05-25T02:56:03;98.75;;;36.53;;
45806;SDS011;31507;51.494;7.518;2023-05-25T02:58:29;86.10;;;36.00;;
45806;SDS011;31507;51.494;7.518;2023-05-25T03:00:55;90.15;;;35.10;;
45806;SDS011;31507;51.494;7.518;2023-05-25T03:03:24;98.72;;;35.45;;
45806;SDS011;31507;51.494;7.518;2023-05-25T03:05:50;86.25;;;34.83;;
45806;SDS011;31507;51.494;7.518;2023-05-25T03:08:16;84.80;;;35.72;;
45806;SDS011;31507;51.494;7.518;2023-05-25T03:10:41;91.97;;;35.67;;
45806;SDS011;31507;51.494;7.518;2023-05-25T03:13:07;90.18;;;35.00;;
45806;SDS011;31507;51.494;7.518;2023-05-25T03:15:32;88.75;;;36.40;;
45806;SDS011;31507;51.494;7.518;2023-05-25T03:17:58;90.53;;;35.17;;
45806;SDS011;31507;51.494;7.518;2023-05-25T03:20:26;82.22;;;36.00;;
45806;SDS011;31507;51.494;7.518;2023-05-25T03:22:52;94.75;;;37.53;;
45806;SDS011;31507;51.494;7.518;2023-05-25T03:25:18;93.22;;;38.72;;
45806;SDS011;31507;51.494;7.518;2023-05-25T03:27:44;101.13;;;38.40;;
45806;SDS011;31507;51.494;7.518;2023-05-25T03:30:10;105.47;;;39.40;;
45806;SDS011;31507;51.494;7.518;2023-05-25T03:32:36;95.68;;;39.08;;
45806;SDS011;31507;51.494;7.518;2023-05-25T03:35:02;97.07;;;38.92;;
45806;SDS011;31507;51.494;7.518;2023-05-25T03:37:29;96.95;;;37.95;;
45806;SDS011;31507;51.494;7.518;2023-05-25T03:39:54;87.75;;;37.72;;
45806;SDS011;31507;51.494;7.518;2023-05-25T03:42:20;98.43;;;37.92;;
45806;SDS011;31507;51.494;7.518;2023-05-25T03:44:45;105.22;;;39.90;;
45806;SDS011;31507;51.494;7.518;2023-05-25T03:47:11;99.97;;;37.97;;
45806;SDS011;31507;51.494;7.518;2023-05-25T03:49:37;100.45;;;39.95;;
45806;SDS011;31507;51.494;7.518;2023-05-25T03:52:03;104.38;;;41.15;;
45806;SDS011;31507;51.494;7.518;2023-05-25T03:54:30;112.65;;;41.53;;
45806;SDS011;31507;51.494;7.518;2023-05-25T03:56:56;103.88;;;39.38;;
45806;SDS011;31507;51.494;7.518;2023-05-25T03:59:22;106.57;;;40.83;;
45806;SDS011;31507;51.494;7.518;2023-05-25T04:01:49;100.43;;;41.38;;
45806;SDS011;31507;51.494;7.518;2023-05-25T04:04:15;115.35;;;43.95;;
45806;SDS011;31507;51.494;7.518;2023-05-25T04:06:41;122.25;;;44.75;;
45806;SDS011;31507;51.494;7.518;2023-05-25T04:09:10;107.53;;;41.95;;
45806;SDS011;31507;51.494;7.518;2023-05-25T04:11:36;103.55;;;41.67;;
45806;SDS011;31507;51.494;7.518;2023-05-25T04:14:02;125.43;;;44.60;;
45806;SDS011;31507;51.494;7.518;2023-05-25T04:16:28;122.93;;;46.05;;
45806;SDS011;31507;51.494;7.518;2023-05-25T04:18:54;133.50;;;47.13;;
45806;SDS011;31507;51.494;7.518;2023-05-25T04:21:20;128.02;;;44.63;;
45806;SDS011;31507;51.494;7.518;2023-05-25T04:23:46;130.80;;;49.20;;
45806;SDS011;31507;51.494;7.518;2023-05-25T04:26:12;130.13;;;48.33;;
45806;SDS011;31507;51.494;7.518;2023-05-25T04:28:39;137.88;;;51.05;;
45806;SDS011;31507;51.494;7.518;2023-05-25T04:31:05;149.30;;;53.60;;
45806;SDS011;31507;51.494;7.518;2023-05-25T04:33:31;152.73;;;54.88;;
45806;SDS011;31507;51.494;7.518;2023-05-25T04:35:58;142.45;;;53.70;;
45806;SDS011;31507;51.494;7.518;2023-05-25T04:38:24;152.25;;;53.50;;
45806;SDS011;31507;51.494;7.518;2023-05-25T04:40:50;145.98;;;55.38;;
45806;SDS011;31507;51.494;7.518;2023-05-25T04:43:18;139.65;;;54.70;;
45806;SDS011;31507;51.494;7.518;2023-05-25T04:45:44;158.23;;;56.25;;
45806;SDS011;31507;51.494;7.518;2023-05-25T04:48:11;132.02;;;55.47;;
45806;SDS011;31507;51.494;7.518;2023-05-25T04:50:37;147.98;;;55.33;;
45806;SDS011;31507;51.494;7.518;2023-05-25T04:53:04;132.00;;;54.30;;
45806;SDS011;31507;51.494;7.518;2023-05-25T04:55:30;115.40;;;49.38;;
45806;SDS011;31507;51.494;7.518;2023-05-25T04:57:56;100.07;;;43.53;;
45806;SDS011;31507;51.494;7.518;2023-05-25T05:00:22;89.53;;;40.88;;
45806;SDS011;31507;51.494;7.518;2023-05-25T05:02:48;83.28;;;36.13;;
45806;SDS011;31507;51.494;7.518;2023-05-25T05:05:15;85.68;;;36.05;;
45806;SDS011;31507;51.494;7.518;2023-05-25T05:07:41;88.45;;;34.78;;
45806;SDS011;31507;51.494;7.518;2023-05-25T05:10:07;66.00;;;30.52;;
45806;SDS011;31507;51.494;7.518;2023-05-25T05:12:33;62.47;;;30.73;;
45806;SDS011;31507;51.494;7.518;2023-05-25T05:14:58;74.40;;;31.67;;
45806;SDS011;31507;51.494;7.518;2023-05-25T05:17:24;88.97;;;33.70;;
45806;SDS011;31507;51.494;7.518;2023-05-25T05:19:52;85.25;;;32.45;;
45806;SDS011;31507;51.494;7.518;2023-05-25T05:22:17;80.28;;;33.13;;
45806;SDS011;31507;51.494;7.518;2023-05-25T05:24:43;82.18;;;36.33;;
45806;SDS011;31507;51.494;7.518;2023-05-25T05:27:09;74.85;;;36.33;;
45806;SDS011;31507;51.494;7.518;2023-05-25T05:29:37;84.90;;;37.42;;
45806;SDS011;31507;51.494;7.518;2023-05-25T05:32:03;80.82;;;36.15;;
45806;SDS011;31507;51.494;7.518;2023-05-25T05:34:29;74.88;;;35.40;;
45806;SDS011;31507;51.494;7.518;2023-05-25T05:36:55;79.28;;;36.33;;
45806;SDS011;31507;51.494;7.518;2023-05-25T05:39:20;72.45;;;36.30;;
45806;SDS011;31507;51.494;7.518;2023-05-25T05:41:46;72.20;;;33.90;;
45806;SDS011;31507;51.494;7.518;2023-05-25T05:44:12;72.30;;;33.25;;
45806;SDS011;31507;51.494;7.518;2023-05-25T05:46:38;58.20;;;28.92;;
45806;SDS011;31507;51.494;7.518;2023-05-25T05:49:03;52.78;;;27.40;;
45806;SDS011;31507;51.494;7.518;2023-05-25T05:51:29;50.40;;;25.52;;
45806;SDS011;31507;51.494;7.518;2023-05-25T05:53:54;50.20;;;24.67;;
45806;SDS011;31507;51.494;7.518;2023-05-25T05:56:20;52.53;;;24.75;;
45806;SDS011;31507;51.494;7.518;2023-05-25T05:58:46;44.63;;;22.33;;
45806;SDS011;31507;51.494;7.518;2023-05-25T06:01:13;38.42;;;20.42;;
45806;SDS011;31507;51.494;7.518;2023-05-25T06:03:41;36.60;;;18.63;;
45806;SDS011;31507;51.494;7.518;2023-05-25T06:06:07;38.60;;;17.55;;
45806;SDS011;31507;51.494;7.518;2023-05-25T06:08:33;40.40;;;17.05;;
45806;SDS011;31507;51.494;7.518;2023-05-25T06:10:59;32.67;;;15.57;;
45806;SDS011;31507;51.494;7.518;2023-05-25T06:13:24;31.75;;;16.27;;
45806;SDS011;31507;51.494;7.518;2023-05-25T06:15:50;33.00;;;15.48;;
45806;SDS011;31507;51.494;7.518;2023-05-25T06:18:16;38.42;;;14.48;;
45806;SDS011;31507;51.494;7.518;2023-05-25T06:20:42;26.42;;;15.10;;
45806;SDS011;31507;51.494;7.518;2023-05-25T06:23:07;26.42;;;13.63;;
45806;SDS011;31507;51.494;7.518;2023-05-25T06:25:35;32.80;;;13.65;;
45806;SDS011;31507;51.494;7.518;2023-05-25T06:28:01;29.55;;;13.35;;
45806;SDS011;31507;51.494;7.518;2023-05-25T06:30:27;26.88;;;11.73;;
45806;SDS011;31507;51.494;7.518;2023-05-25T06:32:52;28.15;;;10.80;;
45806;SDS011;31507;51.494;7.518;2023-05-25T06:35:18;28.15;;;9.77;;
45806;SDS011;31507;51.494;7.518;2023-05-25T06:37:45;21.70;;;10.50;;
45806;SDS011;31507;51.494;7.518;2023-05-25T06:40:11;23.80;;;9.38;;
45806;SDS011;31507;51.494;7.518;2023-05-25T06:42:37;24.95;;;9.70;;
45806;SDS011;31507;51.494;7.518;2023-05-25T06:45:05;23.60;;;9.35;;
45806;SDS011;31507;51.494;7.518;2023-05-25T06:47:32;21.95;;;9.23;;
45806;SDS011;31507;51.494;7.518;2023-05-25T06:49:58;19.65;;;9.05;;
45806;SDS011;31507;51.494;7.518;2023-05-25T06:52:24;18.77;;;8.82;;
45806;SDS011;31507;51.494;7.518;2023-05-25T06:54:52;19.75;;;8.93;;
45806;SDS011;31507;51.494;7.518;2023-05-25T06:57:18;17.98;;;8.13;;
45806;SDS011;31507;51.494;7.518;2023-05-25T06:59:44;20.77;;;8.13;;
45806;SDS011;31507;51.494;7.518;2023-05-25T07:02:09;17.42;;;8.05;;
45806;SDS011;31507;51.494;7.518;2023-05-25T07:04:35;21.52;;;8.45;;
45806;SDS011;31507;51.494;7.518;2023-05-25T07:07:02;22.10;;;8.35;;
45806;SDS011;31507;51.494;7.518;2023-05-25T07:09:28;16.92;;;8.15;;
45806;SDS011;31507;51.494;7.518;2023-05-25T07:11:53;22.58;;;9.32;;
45806;SDS011;31507;51.494;7.518;2023-05-25T07:14:19;17.77;;;8.20;;
45806;SDS011;31507;51.494;7.518;2023-05-25T07:16:45;15.13;;;7.50;;
45806;SDS011;31507;51.494;7.518;2023-05-25T07:19:11;20.35;;;7.75;;
45806;SDS011;31507;51.494;7.518;2023-05-25T07:21:36;24.63;;;7.88;;
45806;SDS011;31507;51.494;7.518;2023-05-25T07:24:03;18.67;;;8.07;;
45806;SDS011;31507;51.494;7.518;2023-05-25T07:26:29;17.98;;;7.75;;
45806;SDS011;31507;51.494;7.518;2023-05-25T07:28:56;21.65;;;8.27;;
45806;SDS011;31507;51.494;7.518;2023-05-25T07:31:22;24.15;;;8.43;;
45806;SDS011;31507;51.494;7.518;2023-05-25T07:33:50;23.00;;;7.47;;
45806;SDS011;31507;51.494;7.518;2023-05-25T07:36:17;24.65;;;8.20;;
45806;SDS011;31507;51.494;7.518;2023-05-25T07:38:43;18.80;;;7.65;;
45806;SDS011;31507;51.494;7.518;2023-05-25T07:41:11;19.00;;;7.57;;
45806;SDS011;31507;51.494;7.518;2023-05-25T07:43:37;21.45;;;7.93;;
45806;SDS011;31507;51.494;7.518;2023-05-25T07:46:03;14.55;;;6.32;;
45806;SDS011;31507;51.494;7.518;2023-05-25T07:48:29;20.08;;;6.63;;
45806;SDS011;31507;51.494;7.518;2023-05-25T07:50:54;23.50;;;7.28;;
45806;SDS011;31507;51.494;7.518;2023-05-25T07:53:20;14.77;;;6.82;;
45806;SDS011;31507;51.494;7.518;2023-05-25T07:55:46;18.13;;;7.22;;
45806;SDS011;31507;51.494;7.518;2023-05-25T07:58:11;19.63;;;7.03;;
45806;SDS011;31507;51.494;7.518;2023-05-25T08:00:37;22.27;;;7.07;;
45806;SDS011;31507;51.494;7.518;2023-05-25T08:03:03;17.95;;;7.13;;
45806;SDS011;31507;51.494;7.518;2023-05-25T08:05:28;20.27;;;6.65;;
45806;SDS011;31507;51.494;7.518;2023-05-25T08:07:54;14.98;;;7.03;;
45806;SDS011;31507;51.494;7.518;2023-05-25T08:10:20;14.55;;;6.30;;
45806;SDS011;31507;51.494;7.518;2023-05-25T08:12:45;16.85;;;6.28;;
45806;SDS011;31507;51.494;7.518;2023-05-25T08:15:11;20.17;;;6.40;;
45806;SDS011;31507;51.494;7.518;2023-05-25T08:17:37;20.25;;;6.28;;
45806;SDS011;31507;51.494;7.518;2023-05-25T08:20:03;18.70;;;6.65;;
45806;SDS011;31507;51.494;7.518;2023-05-25T08:22:32;21.77;;;7.30;;
45806;SDS011;31507;51.494;7.518;2023-05-25T08:24:58;17.92;;;6.82;;
45806;SDS011;31507;51.494;7.518;2023-05-25T08:27:23;17.20;;;6.30;;
45806;SDS011;31507;51.494;7.518;2023-05-25T08:29:49;19.13;;;6.68;;
45806;SDS011;31507;51.494;7.518;2023-05-25T08:32:15;16.92;;;6.50;;
45806;SDS011;31507;51.494;7.518;2023-05-25T08:34:40;17.45;;;6.05;;
45806;SDS011;31507;51.494;7.518;2023-05-25T08:37:06;17.55;;;6.30;;
45806;SDS011;31507;51.494;7.518;2023-05-25T08:39:31;17.90;;;7.40;;
45806;SDS011;31507;51.494;7.518;2023-05-25T08:41:57;20.48;;;6.57;;
45806;SDS011;31507;51.494;7.518;2023-05-25T08:44:23;19.30;;;6.60;;
45806;SDS011;31507;51.494;7.518;2023-05-25T08:46:51;22.42;;;6.50;;
45806;SDS011;31507;51.494;7.518;2023-05-25T08:49:18;19.30;;;6.00;;
45806;SDS011;31507;51.494;7.518;2023-05-25T08:51:52;12.70;;;5.43;;
45806;SDS011;31507;51.494;7.518;2023-05-25T08:54:19;18.35;;;5.22;;
45806;SDS011;31507;51.494;7.518;2023-05-25T08:56:49;14.45;;;5.00;;
45806;SDS011;31507;51.494;7.518;2023-05-25T08:59:19;17.20;;;5.22;;
45806;SDS011;31507;51.494;7.518;2023-05-25T09:01:47;17.48;;;5.43;;
45806;SDS011;31507;51.494;7.518;2023-05-25T09:04:16;17.30;;;5.90;;
45806;SDS011;31507;51.494;7.518;2023-05-25T09:06:43;19.50;;;6.70;;
45806;SDS011;31507;51.494;7.518;2023-05-25T09:09:10;14.13;;;6.38;;
45806;SDS011;31507;51.494;7.518;2023-05-25T09:11:36;14.88;;;6.35;;
45806;SDS011;31507;51.494;7.518;2023-05-25T09:14:04;12.75;;;6.53;;
45806;SDS011;31507;51.494;7.518;2023-05-25T09:16:31;16.88;;;7.00;;
45806;SDS011;31507;51.494;7.518;2023-05-25T09:18:57;21.65;;;7.30;;
45806;SDS011;31507;51.494;7.518;2023-05-25T09:21:24;20.58;;;7.07;;
45806;SDS011;31507;51.494;7.518;2023-05-25T09:23:50;13.40;;;6.45;;
45806;SDS011;31507;51.494;7.518;2023-05-25T09:26:16;16.77;;;6.75;;
45806;SDS011;31507;51.494;7.518;2023-05-25T09:28:45;15.25;;;6.85;;
45806;SDS011;31507;51.494;7.518;2023-05-25T09:31:12;16.05;;;6.20;;
45806;SDS011;31507;51.494;7.518;2023-05-25T09:33:39;14.90;;;6.88;;
45806;SDS011;31507;51.494;7.518;2023-05-25T09:36:05;16.92;;;6.18;;
45806;SDS011;31507;51.494;7.518;2023-05-25T09:38:31;14.13;;;5.93;;
45806;SDS011;31507;51.494;7.518;2023-05-25T09:40:57;9.63;;;5.88;;
45806;SDS011;31507;51.494;7.518;2023-05-25T09:43:23;13.00;;;5.88;;
45806;SDS011;31507;51.494;7.518;2023-05-25T09:45:53;14.00;;;5.72;;
45806;SDS011;31507;51.494;7.518;2023-05-25T09:48:20;14.52;;;5.20;;
45806;SDS011;31507;51.494;7.518;2023-05-25T09:50:46;12.60;;;5.72;;
45806;SDS011;31507;51.494;7.518;2023-05-25T09:53:12;14.52;;;5.75;;
45806;SDS011;31507;51.494;7.518;2023-05-25T09:55:38;16.42;;;6.00;;
45806;SDS011;31507;51.494;7.518;2023-05-25T09:58:04;12.60;;;5.68;;
45806;SDS011;31507;51.494;7.518;2023-05-25T10:00:30;14.07;;;6.07;;
45806;SDS011;31507;51.494;7.518;2023-05-25T10:02:55;13.85;;;5.93;;
45806;SDS011;31507;51.494;7.518;2023-05-25T10:05:21;13.70;;;6.03;;
45806;SDS011;31507;51.494;7.518;2023-05-25T10:07:47;15.07;;;6.75;;
45806;SDS011;31507;51.494;7.518;2023-05-25T10:10:15;11.90;;;6.53;;
45806;SDS011;31507;51.494;7.518;2023-05-25T10:12:41;13.02;;;5.60;;
45806;SDS011;31507;51.494;7.518;2023-05-25T10:15:12;17.45;;;6.38;;
45806;SDS011;31507;51.494;7.518;2023-05-25T10:17:48;11.90;;;5.38;;
45806;SDS011;31507;51.494;7.518;2023-05-25T10:20:17;14.32;;;6.15;;
45806;SDS011;31507;51.494;7.518;2023-05-25T10:22:55;16.15;;;6.20;;
45806;SDS011;31507;51.494;7.518;2023-05-25T10:25:25;14.45;;;6.18;;
45806;SDS011;31507;51.494;7.518;2023-05-25T10:28:02;16.58;;;6.70;;
45806;SDS011;31507;51.494;7.518;2023-05-25T10:30:37;13.80;;;6.20;;
45806;SDS011;31507;51.494;7.518;2023-05-25T10:33:05;17.40;;;6.60;;
45806;SDS011;31507;51.494;7.518;2023-05-25T10:35:31;13.00;;;6.60;;
45806;SDS011;31507;51.494;7.518;2023-05-25T10:37:58;14.77;;;6.55;;
45806;SDS011;31507;51.494;7.518;2023-05-25T10:40:24;14.23;;;6.88;;
45806;SDS011;31507;51.494;7.518;2023-05-25T10:42:50;16.15;;;6.35;;
45806;SDS011;31507;51.494;7.518;2023-05-25T10:45:16;17.35;;;7.03;;
45806;SDS011;31507;51.494;7.518;2023-05-25T10:47:43;13.13;;;6.72;;
45806;SDS011;31507;51.494;7.518;2023-05-25T10:50:19;14.98;;;6.72;;
45806;SDS011;31507;51.494;7.518;2023-05-25T10:52:56;15.18;;;6.75;;
45806;SDS011;31507;51.494;7.518;2023-05-25T10:55:26;13.10;;;6.40;;
45806;SDS011;31507;51.494;7.518;2023-05-25T10:58:15;13.88;;;6.88;;
45806;SDS011;31507;51.494;7.518;2023-05-25T11:00:42;12.93;;;6.10;;
45806;SDS011;31507;51.494;7.518;2023-05-25T11:06:09;12.50;;;5.85;;
45806;SDS011;31507;51.494;7.518;2023-05-25T11:08:48;20.10;;;6.63;;
45806;SDS011;31507;51.494;7.518;2023-05-25T11:11:20;14.68;;;6.38;;
45806;SDS011;31507;51.494;7.518;2023-05-25T11:14:04;14.77;;;6.47;;
45806;SDS011;31507;51.494;7.518;2023-05-25T11:16:44;14.93;;;5.97;;
45806;SDS011;31507;51.494;7.518;2023-05-25T11:22:13;12.73;;;6.07;;
45806;SDS011;31507;51.494;7.518;2023-05-25T11:24:42;11.82;;;6.05;;
45806;SDS011;31507;51.494;7.518;2023-05-25T11:27:13;12.95;;;6.85;;
45806;SDS011;31507;51.494;7.518;2023-05-25T11:29:39;13.43;;;6.15;;
45806;SDS011;31507;51.494;7.518;2023-05-25T11:32:12;14.63;;;6.53;;
45806;SDS011;31507;51.494;7.518;2023-05-25T11:34:38;14.25;;;6.70;;
45806;SDS011;31507;51.494;7.518;2023-05-25T11:37:10;13.45;;;6.80;;
45806;SDS011;31507;51.494;7.518;2023-05-25T11:39:37;13.90;;;6.63;;
45806;SDS011;31507;51.494;7.518;2023-05-25T11:42:03;18.40;;;6.63;;
45806;SDS011;31507;51.494;7.518;2023-05-25T11:44:31;15.60;;;6.25;;
45806;SDS011;31507;51.494;7.518;2023-05-25T11:47:00;14.30;;;6.78;;
45806;SDS011;31507;51.494;7.518;2023-05-25T11:49:32;14.70;;;6.50;;
45806;SDS011;31507;51.494;7.518;2023-05-25T11:51:58;12.57;;;5.80;;
45806;SDS011;31507;51.494;7.518;2023-05-25T11:54:28;16.00;;;6.32;;
45806;SDS011;31507;51.494;7.518;2023-05-25T11:56:55;13.85;;;5.72;;
45806;SDS011;31507;51.494;7.518;2023-05-25T11:59:24;12.00;;;5.80;;
45806;SDS011;31507;51.494;7.518;2023-05-25T12:02:00;12.45;;;6.43;;
45806;SDS011;31507;51.494;7.518;2023-05-25T12:04:30;10.60;;;5.80;;
45806;SDS011;31507;51.494;7.518;2023-05-25T12:10:10;15.85;;;6.00;;
45806;SDS011;31507;51.494;7.518;2023-05-25T12:12:40;11.88;;;6.10;;
45806;SDS011;31507;51.494;7.518;2023-05-25T12:15:07;17.60;;;6.55;;
45806;SDS011;31507;51.494;7.518;2023-05-25T12:17:54;14.13;;;6.57;;
45806;SDS011;31507;51.494;7.518;2023-05-25T12:20:26;16.63;;;6.30;;
45806;SDS011;31507;51.494;7.518;2023-05-25T12:22:51;17.27;;;6.78;;
45806;SDS011;31507;51.494;7.518;2023-05-25T12:25:26;18.25;;;6.20;;
45806;SDS011;31507;51.494;7.518;2023-05-25T12:30:43;14.23;;;6.38;;
45806;SDS011;31507;51.494;7.518;2023-05-25T12:33:11;15.35;;;7.35;;
45806;SDS011;31507;51.494;7.518;2023-05-25T12:35:45;20.15;;;7.50;;
45806;SDS011;31507;51.494;7.518;2023-05-25T12:38:12;18.08;;;7.30;;
45806;SDS011;31507;51.494;7.518;2023-05-25T12:40:39;21.20;;;7.53;;
45806;SDS011;31507;51.494;7.518;2023-05-25T12:43:05;17.08;;;7.05;;
45806;SDS011;31507;51.494;7.518;2023-05-25T12:45:31;19.85;;;6.90;;
45806;SDS011;31507;51.494;7.518;2023-05-25T12:47:57;17.70;;;6.90;;
45806;SDS011;31507;51.494;7.518;2023-05-25T12:50:22;14.88;;;5.93;;
45806;SDS011;31507;51.494;7.518;2023-05-25T12:52:48;13.00;;;6.03;;
45806;SDS011;31507;51.494;7.518;2023-05-25T12:55:17;14.85;;;6.53;;
45806;SDS011;31507;51.494;7.518;2023-05-25T12:58:04;15.27;;;6.68;;
45806;SDS011;31507;51.494;7.518;2023-05-25T13:00:34;13.88;;;6.40;;
45806;SDS011;31507;51.494;7.518;2023-05-25T13:03:01;15.93;;;7.25;;
45806;SDS011;31507;51.494;7.518;2023-05-25T13:05:31;13.32;;;6.82;;
45806;SDS011;31507;51.494;7.518;2023-05-25T13:07:59;13.93;;;6.68;;
45806;SDS011;31507;51.494;7.518;2023-05-25T13:10:28;15.00;;;6.72;;
45806;SDS011;31507;51.494;7.518;2023-05-25T13:12:56;14.60;;;6.35;;
45806;SDS011;31507;51.494;7.518;2023-05-25T13:15:23;16.42;;;7.05;;
45806;SDS011;31507;51.494;7.518;2023-05-25T13:17:50;12.82;;;6.32;;
45806;SDS011;31507;51.494;7.518;2023-05-25T13:20:19;13.77;;;6.55;;
45806;SDS011;31507;51.494;7.518;2023-05-25T13:22:47;14.90;;;6.40;;
45806;SDS011;31507;51.494;7.518;2023-05-25T13:25:13;15.35;;;5.90;;
45806;SDS011;31507;51.494;7.518;2023-05-25T13:27:43;18.60;;;6.63;;
45806;SDS011;31507;51.494;7.518;2023-05-25T13:30:10;15.80;;;7.20;;
45806;SDS011;31507;51.494;7.518;2023-05-25T13:32:39;14.63;;;6.95;;
45806;SDS011;31507;51.494;7.518;2023-05-25T13:35:07;14.90;;;6.95;;
45806;SDS011;31507;51.494;7.518;2023-05-25T13:37:36;13.23;;;6.35;;
45806;SDS011;31507;51.494;7.518;2023-05-25T13:40:02;14.52;;;7.32;;
45806;SDS011;31507;51.494;7.518;2023-05-25T13:42:28;18.85;;;7.28;;
45806;SDS011;31507;51.494;7.518;2023-05-25T13:44:53;16.35;;;6.63;;
45806;SDS011;31507;51.494;7.518;2023-05-25T13:47:19;14.60;;;7.13;;
45806;SDS011;31507;51.494;7.518;2023-05-25T13:49:45;13.63;;;7.00;;
45806;SDS011;31507;51.494;7.518;2023-05-25T13:52:11;16.40;;;7.38;;
45806;SDS011;31507;51.494;7.518;2023-05-25T13:54:37;15.05;;;7.40;;
45806;SDS011;31507;51.494;7.518;2023-05-25T13:57:03;14.77;;;6.90;;
45806;SDS011;31507;51.494;7.518;2023-05-25T13:59:28;16.00;;;7.75;;
45806;SDS011;31507;51.494;7.518;2023-05-25T14:01:54;13.13;;;6.55;;
45806;SDS011;31507;51.494;7.518;2023-05-25T14:04:20;13.60;;;7.13;;
45806;SDS011;31507;51.494;7.518;2023-05-25T14:06:46;10.38;;;6.00;;
45806;SDS011;31507;51.494;7.518;2023-05-25T14:09:11;12.35;;;6.28;;
45806;SDS011;31507;51.494;7.518;2023-05-25T14:11:37;10.90;;;6.13;;
45806;SDS011;31507;51.494;7.518;2023-05-25T14:14:03;11.95;;;5.78;;
45806;SDS011;31507;51.494;7.518;2023-05-25T14:16:36;12.63;;;5.47;;
45806;SDS011;31507;51.494;7.518;2023-05-25T14:19:02;10.13;;;5.43;;
45806;SDS011;31507;51.494;7.518;2023-05-25T14:21:28;15.10;;;6.10;;
45806;SDS011;31507;51.494;7.518;2023-05-25T14:23:55;8.07;;;5.25;;
45806;SDS011;31507;51.494;7.518;2023-05-25T14:26:21;9.30;;;5.15;;
45806;SDS011;31507;51.494;7.518;2023-05-25T14:28:48;9.52;;;4.70;;
45806;SDS011;31507;51.494;7.518;2023-05-25T14:31:13;10.80;;;4.50;;
45806;SDS011;31507;51.494;7.518;2023-05-25T14:33:39;8.48;;;4.72;;
45806;SDS011;31507;51.494;7.518;2023-05-25T14:36:05;9.95;;;4.55;;
45806;SDS011;31507;51.494;7.518;2023-05-25T14:38:31;9.73;;;4.88;;
45806;SDS011;31507;51.494;7.518;2023-05-25T14:40:57;15.35;;;4.60;;
45806;SDS011;31507;51.494;7.518;2023-05-25T14:43:23;11.40;;;4.72;;
45806;SDS011;31507;51.494;7.518;2023-05-25T14:45:48;10.93;;;5.18;;